Time;durP1;ratioP1;P1;durP2;ratioP2;P2;SDS_P1;SDS_P2;PMS_P1;PMS_P2;Temp;Humidity;BMP_temperature;BMP_pressure;BME280_temperature;BME280_humidity;BME280_pressure;Samples;Min_cycle;Max_cycle;Signal;HPM_P1;HPM_P2
2022/08/28 00:04:36;;;;;;;7.72;7.07;;;;;;;18.67;100.00;99716.00;10459828;28;20045;-72
2022/08/28 00:09:38;;;;;;;12.20;11.25;;;;;;;18.72;100.00;99715.72;10441833;28;20136;-72
2022/08/28 00:14:39;;;;;;;14.63;12.05;;;;;;;18.61;100.00;99714.63;10441738;28;20098;-71
2022/08/28 00:19:41;;;;;;;16.30;15.05;;;;;;;18.54;100.00;99716.00;10459076;28;20052;-72
2022/08/28 00:24:44;;;;;;;17.70;16.30;;;;;;;18.52;100.00;99723.25;10459150;28;20078;-71
2022/08/28 00:29:46;;;;;;;18.38;16.67;;;;;;;18.36;100.00;99727.94;10458790;28;20128;-71
2022/08/28 00:34:48;;;;;;;15.82;14.73;;;;;;;18.33;100.00;99744.97;10460582;28;20045;-71
2022/08/28 00:39:50;;;;;;;15.55;14.18;;;;;;;18.40;100.00;99735.59;10458535;28;20127;-71
2022/08/28 00:44:52;;;;;;;15.23;14.00;;;;;;;18.26;100.00;99733.03;10458213;28;20041;-71
2022/08/28 00:49:55;;;;;;;16.67;15.57;;;;;;;18.17;100.00;99735.47;10440475;28;20056;-72
2022/08/28 00:55:16;;;;;;;16.90;15.48;;;;;;;18.16;100.00;99731.97;10458554;28;20497;-71
2022/08/28 01:00:46;;;;;;;18.45;16.90;;;;;;;18.15;100.00;99725.81;10458440;28;20049;-72
2022/08/28 01:05:48;;;;;;;17.25;16.13;;;;;;;18.14;100.00;99731.22;10291383;28;20051;-72
2022/08/28 01:10:53;;;;;;;18.20;17.00;;;;;;;18.10;100.00;99727.91;10292163;28;20058;-72
2022/08/28 01:15:56;;;;;;;19.15;17.85;;;;;;;17.98;100.00;99731.41;10275318;28;20062;-70
2022/08/28 01:21:28;;;;;;;21.00;19.20;;;;;;;17.81;100.00;99737.00;10274934;28;20061;-71
2022/08/28 01:26:30;;;;;;;21.38;19.73;;;;;;;17.77;100.00;99736.34;10275219;28;20425;-71
2022/08/28 01:31:32;;;;;;;20.20;18.77;;;;;;;17.89;100.00;99746.16;10298421;28;20054;-70
2022/08/28 01:36:34;;;;;;;20.45;19.25;;;;;;;17.81;100.00;99744.97;10298428;28;20058;-71
2022/08/28 01:41:42;;;;;;;22.02;20.20;;;;;;;17.71;100.00;99750.03;10390585;28;20084;-72
2022/08/28 01:46:44;;;;;;;20.13;18.55;;;;;;;17.79;100.00;99741.53;10465636;28;20037;-71
2022/08/28 01:51:46;;;;;;;21.75;19.90;;;;;;;17.83;100.00;99749.22;10466664;28;20051;-72
2022/08/28 01:56:49;;;;;;;23.35;21.15;;;;;;;17.68;100.00;99752.88;10467504;28;20509;-71
2022/08/28 02:01:53;;;;;;;24.25;21.35;;;;;;;17.85;100.00;99754.44;10465500;28;20037;-71
2022/08/28 02:06:55;;;;;;;22.27;20.30;;;;;;;17.77;100.00;99757.59;10465135;28;20398;-71
2022/08/28 02:11:56;;;;;;;24.85;22.40;;;;;;;17.76;100.00;99763.88;10446977;28;20438;-71
2022/08/28 02:16:58;;;;;;;24.10;21.45;;;;;;;17.77;100.00;99760.28;10464106;28;20459;-72
2022/08/28 02:22:00;;;;;;;23.85;21.60;;;;;;;17.80;100.00;99769.88;10463975;28;20051;-72
2022/08/28 02:27:02;;;;;;;26.25;23.60;;;;;;;17.70;100.00;99769.56;10463728;28;20044;-71
2022/08/28 02:32:04;;;;;;;26.90;24.40;;;;;;;17.69;100.00;99765.19;10445828;28;20059;-71
2022/08/28 02:37:10;;;;;;;27.25;24.38;;;;;;;17.75;100.00;99771.94;10463453;28;20051;-71
2022/08/28 02:42:12;;;;;;;34.70;23.58;;;;;;;17.74;100.00;99773.75;10463112;28;20075;-71
2022/08/28 02:47:17;;;;;;;26.95;24.50;;;;;;;17.74;100.00;99773.75;10446400;28;20098;-71
2022/08/28 02:52:20;;;;;;;28.42;24.52;;;;;;;17.61;100.00;99775.47;10444963;28;20063;-71
2022/08/28 02:57:22;;;;;;;25.75;23.25;;;;;;;17.73;100.00;99777.34;10462412;28;20115;-71
2022/08/28 03:02:24;;;;;;;24.48;22.33;;;;;;;17.82;100.00;99771.44;10444664;28;20044;-71
2022/08/28 03:07:28;;;;;;;26.58;23.90;;;;;;;17.70;100.00;99766.91;10461949;28;20475;-71
2022/08/28 03:12:29;;;;;;;25.80;22.85;;;;;;;17.77;100.00;99767.41;10461812;28;20045;-72
2022/08/28 03:17:31;;;;;;;24.65;22.15;;;;;;;17.80;100.00;99772.53;10443834;28;20417;-71
2022/08/28 03:27:53;;;;;;;21.95;20.15;;;;;;;17.75;100.00;99771.94;10461450;28;20119;-72
2022/08/28 03:32:55;;;;;;;21.90;19.63;;;;;;;17.75;100.00;99778.16;10443961;28;20053;-71
2022/08/28 03:37:57;;;;;;;20.75;18.85;;;;;;;17.66;100.00;99776.03;10460914;28;20037;-71
2022/08/28 03:42:58;;;;;;;22.65;18.15;;;;;;;17.50;100.00;99778.00;10442793;28;20059;-73
2022/08/28 03:48:00;;;;;;;18.95;17.17;;;;;;;17.53;100.00;99770.69;10460041;28;20043;-71
2022/08/28 03:53:02;;;;;;;18.25;16.55;;;;;;;17.59;100.00;99783.56;10459959;28;20099;-71
2022/08/28 03:58:03;;;;;;;18.02;15.65;;;;;;;17.57;100.00;99789.91;10460310;28;20040;-72
2022/08/28 04:03:06;;;;;;;20.67;16.08;;;;;;;17.45;100.00;99790.72;10459728;28;20048;-71
2022/08/28 04:08:08;;;;;;;19.05;16.27;;;;;;;17.39;100.00;99805.22;10459216;28;20041;-71
2022/08/28 04:13:12;;;;;;;15.85;14.48;;;;;;;17.32;100.00;99794.16;10441533;28;20052;-71
2022/08/28 04:18:14;;;;;;;18.10;16.38;;;;;;;17.12;100.00;99806.00;10459367;28;20449;-71
2022/08/28 04:23:16;;;;;;;16.88;15.38;;;;;;;17.30;100.00;99808.47;10460683;28;20056;-71
2022/08/28 04:28:17;;;;;;;16.85;15.45;;;;;;;17.46;100.00;99809.22;10460004;28;20402;-71
2022/08/28 04:33:21;;;;;;;17.58;14.85;;;;;;;17.35;100.00;99809.91;10441092;28;20053;-71
2022/08/28 04:38:23;;;;;;;15.63;13.50;;;;;;;17.32;100.00;99807.44;10458757;28;20044;-71
2022/08/28 04:43:24;;;;;;;14.05;12.63;;;;;;;17.34;100.00;99834.75;10459861;28;20053;-71
2022/08/28 04:48:26;;;;;;;13.57;12.27;;;;;;;17.39;100.00;99822.03;10458688;28;20048;-71
2022/08/28 04:53:28;;;;;;;14.00;12.48;;;;;;;17.45;100.00;99823.47;10458603;28;20120;-71
2022/08/28 04:58:31;;;;;;;11.75;10.10;;;;;;;17.43;100.00;99835.13;10459208;28;20037;-71
2022/08/28 05:03:32;;;;;;;17.10;11.18;;;;;;;17.26;100.00;99825.53;10457365;28;20057;-71
2022/08/28 05:08:34;;;;;;;10.43;7.65;;;;;;;17.39;100.00;99832.66;10457976;28;20160;-71
2022/08/28 05:13:36;;;;;;;8.60;7.78;;;;;;;17.24;100.00;99833.63;10457839;28;20049;-70
2022/08/28 05:18:38;;;;;;;12.13;7.57;;;;;;;17.09;100.00;99834.59;10458429;28;20044;-72
2022/08/28 05:23:41;;;;;;;12.90;6.68;;;;;;;17.18;100.00;99847.31;10457759;28;20042;-71
2022/08/28 05:28:42;;;;;;;11.20;7.97;;;;;;;16.90;100.00;99854.28;10457520;28;20041;-71
2022/08/28 05:33:46;;;;;;;14.38;8.05;;;;;;;16.90;100.00;99850.78;10440012;28;20487;-71
2022/08/28 05:38:49;;;;;;;11.35;7.10;;;;;;;16.81;100.00;99872.56;10439778;28;20490;-72
2022/08/28 05:43:52;;;;;;;12.95;7.18;;;;;;;17.05;100.00;99873.75;10458282;28;20069;-72
2022/08/28 05:48:55;;;;;;;12.20;6.85;;;;;;;17.07;100.00;99890.44;10440495;28;20108;-71
2022/08/28 05:53:57;;;;;;;10.57;6.68;;;;;;;16.86;100.00;99891.72;10457942;28;20053;-72
2022/08/28 05:59:01;;;;;;;10.05;5.20;;;;;;;16.93;100.00;99895.72;10441527;28;20037;-71
2022/08/28 06:04:10;;;;;;;10.60;5.15;;;;;;;16.98;100.00;99906.06;10441694;28;20510;-71
2022/08/28 06:09:21;;;;;;;11.15;5.13;;;;;;;16.97;100.00;99902.56;10441601;28;20092;-70
2022/08/28 06:14:31;;;;;;;6.97;4.28;;;;;;;16.91;100.00;99910.91;10442444;28;20051;-71
2022/08/28 06:19:35;;;;;;;9.65;3.55;;;;;;;17.09;100.00;99919.56;10465348;28;20051;-72
2022/08/28 06:24:41;;;;;;;8.35;3.75;;;;;;;17.06;100.00;99909.97;10464967;28;20071;-71
2022/08/28 06:29:43;;;;;;;7.65;3.55;;;;;;;17.39;100.00;99919.47;10464695;28;20052;-70
2022/08/28 06:34:45;;;;;;;10.85;4.18;;;;;;;17.27;100.00;99920.25;10466333;28;20059;-71
2022/08/28 06:39:46;;;;;;;12.75;4.03;;;;;;;17.36;97.79;99917.03;10465741;28;20051;-70
2022/08/28 06:44:48;;;;;;;7.30;2.63;;;;;;;17.35;96.86;99921.50;10447723;28;20532;-71
2022/08/28 06:49:50;;;;;;;13.48;4.15;;;;;;;17.19;100.00;99920.72;10464367;28;20064;-71
2022/08/28 06:54:52;;;;;;;13.65;3.08;;;;;;;17.34;99.81;99927.72;10446925;28;20044;-71
2022/08/28 06:59:57;;;;;;;10.18;3.33;;;;;;;17.50;97.83;99932.13;10446679;28;20040;-71
2022/08/28 07:04:59;;;;;;;14.10;3.80;;;;;;;17.38;92.66;99939.88;10446285;28;20051;-71
2022/08/28 07:10:02;;;;;;;9.07;3.42;;;;;;;17.25;94.18;99940.72;10464224;28;20068;-71
2022/08/28 07:15:04;;;;;;;9.18;3.33;;;;;;;17.05;92.98;99945.47;10445497;28;20421;-69
2022/08/28 07:20:06;;;;;;;10.43;3.30;;;;;;;17.19;93.63;99946.44;10462468;28;20041;-70
2022/08/28 07:25:09;;;;;;;8.32;3.00;;;;;;;17.21;90.64;99944.50;10462229;28;20049;-72
2022/08/28 07:30:12;;;;;;;7.40;3.58;;;;;;;17.19;89.36;99946.44;10445489;28;20561;-72
2022/08/28 07:35:17;;;;;;;12.45;3.70;;;;;;;17.25;89.80;99946.03;10462215;28;20060;-72
2022/08/28 07:40:21;;;;;;;8.13;2.78;;;;;;;17.28;87.74;99948.53;10462682;28;20037;-73
2022/08/28 07:45:24;;;;;;;11.13;3.08;;;;;;;17.32;91.22;99964.19;10461786;28;20068;-71
2022/08/28 07:50:26;;;;;;;10.30;2.95;;;;;;;17.44;87.05;99959.91;10462076;28;20128;-72
2022/08/28 07:55:30;;;;;;;10.07;3.15;;;;;;;17.32;87.49;99969.50;10443689;28;20139;-71
2022/08/28 08:00:31;;;;;;;7.75;3.05;;;;;;;17.46;88.34;99973.13;10460837;28;20055;-72
2022/08/28 08:05:33;;;;;;;8.50;3.00;;;;;;;17.50;83.48;99978.16;10461351;28;20045;-72
2022/08/28 08:10:35;;;;;;;8.10;3.30;;;;;;;17.40;87.33;99980.53;10461126;28;20119;-72
2022/08/28 08:15:36;;;;;;;19.77;3.65;;;;;;;17.51;88.88;99982.50;10443151;28;20049;-73
2022/08/28 08:20:38;;;;;;;11.80;3.03;;;;;;;17.58;88.63;99980.34;10460626;28;20051;-72
2022/08/28 08:25:40;;;;;;;7.93;3.15;;;;;;;17.83;86.94;99982.34;10460069;28;20513;-71
2022/08/28 08:30:42;;;;;;;9.73;3.50;;;;;;;18.08;85.35;99987.84;10459639;28;20060;-73
2022/08/28 08:35:44;;;;;;;8.82;2.95;;;;;;;18.31;80.80;99989.00;10442702;28;20088;-72
2022/08/28 08:40:46;;;;;;;7.18;2.80;;;;;;;18.43;81.06;99995.38;10442122;28;20076;-72
2022/08/28 08:45:50;;;;;;;11.02;3.08;;;;;;;18.57;81.82;99997.13;10458675;28;20548;-71
2022/08/28 08:50:52;;;;;;;8.85;3.20;;;;;;;18.67;81.81;100007.06;10459572;28;20388;-70
2022/08/28 08:55:56;;;;;;;9.18;2.90;;;;;;;18.77;79.04;100011.81;10459474;28;20574;-71
2022/08/28 09:01:27;;;;;;;15.32;3.33;;;;;;;19.02;77.03;100021.69;10441294;28;20049;-71
2022/08/28 09:06:35;;;;;;;6.40;2.85;;;;;;;19.56;77.80;100002.88;10441434;28;20139;-72
2022/08/28 09:11:43;;;;;;;10.60;3.70;;;;;;;19.56;74.41;100005.56;10459086;28;20414;-72
2022/08/28 09:16:46;;;;;;;12.00;4.13;;;;;;;19.24;75.97;100010.44;10440913;28;20076;-71
2022/08/28 09:21:49;;;;;;;9.57;3.50;;;;;;;19.41;76.13;100015.47;10441064;28;20052;-71
2022/08/28 09:27:03;;;;;;;11.25;4.10;;;;;;;19.61;77.11;100012.34;10458342;28;20491;-70
2022/08/28 09:32:17;;;;;;;12.65;3.35;;;;;;;19.72;73.56;100008.91;10459364;28;20068;-71
2022/08/28 09:37:25;;;;;;;8.68;3.65;;;;;;;19.87;73.01;100014.97;10459888;28;20048;-70
2022/08/28 09:47:54;;;;;;;10.00;3.25;;;;;;;20.21;70.45;100012.56;10458171;28;20064;-71
2022/08/28 09:53:18;;;;;;;7.75;3.33;;;;;;;20.42;72.02;100003.84;10467166;28;20059;-72
2022/08/28 09:58:36;;;;;;;8.20;3.90;;;;;;;20.75;71.33;100010.38;10449256;28;20132;-71
2022/08/28 10:04:12;;;;;;;8.18;3.45;;;;;;;21.10;67.53;100010.38;10447541;28;20045;-70
2022/08/28 10:09:20;;;;;;;6.57;2.95;;;;;;;21.40;67.41;100006.38;10465379;28;20120;-72
2022/08/28 10:14:38;;;;;;;5.22;2.53;;;;;;;21.71;64.63;100020.03;10466366;28;20044;-71
2022/08/28 10:20:23;;;;;;;6.78;3.00;;;;;;;21.95;62.65;100018.09;10465162;28;20072;-72
2022/08/28 10:25:51;;;;;;;7.75;2.67;;;;;;;22.29;60.36;100026.16;10298245;28;20078;-71
2022/08/28 10:31:23;;;;;;;6.25;2.85;;;;;;;21.89;62.49;100032.81;10297157;28;20094;-72
2022/08/28 10:36:29;;;;;;;6.05;2.97;;;;;;;22.45;60.51;100026.63;10296769;28;20143;-71
2022/08/28 10:41:36;;;;;;;12.27;3.28;;;;;;;22.50;60.15;100035.13;10296130;28;20153;-71
2022/08/28 10:46:47;;;;;;;8.18;3.00;;;;;;;22.76;59.46;100029.47;10280026;28;20078;-71
2022/08/28 10:52:04;;;;;;;7.22;2.50;;;;;;;22.63;59.13;100030.47;10278397;28;20416;-71
2022/08/28 10:57:38;;;;;;;9.57;3.10;;;;;;;22.34;59.41;100023.94;10320214;28;20042;-70
2022/08/28 11:02:47;;;;;;;11.00;3.13;;;;;;;22.47;58.04;100031.84;10461496;28;20110;-71
2022/08/28 11:08:03;;;;;;;7.55;2.95;;;;;;;23.03;58.37;100023.66;10462314;28;20120;-70
2022/08/28 11:13:16;;;;;;;8.18;3.63;;;;;;;22.69;59.18;100029.09;10463491;28;20048;-71
2022/08/28 11:18:55;;;;;;;5.95;2.75;;;;;;;22.51;57.11;100033.28;10461295;28;20045;-70
2022/08/28 11:24:07;;;;;;;9.05;3.08;;;;;;;22.74;55.78;100034.94;10465127;28;20090;-71
2022/08/28 11:29:54;;;;;;;8.90;2.92;;;;;;;22.72;55.14;100030.69;10462102;28;20045;-71
2022/08/28 11:35:08;;;;;;;5.93;3.10;;;;;;;22.27;57.18;100031.63;10462292;28;20055;-71
2022/08/28 11:40:32;;;;;;;6.78;3.42;;;;;;;22.50;57.17;100043.16;10462865;28;20045;-71
2022/08/28 11:45:47;;;;;;;6.43;3.10;;;;;;;22.83;57.51;100049.41;10444041;28;20060;-71
2022/08/28 11:51:03;;;;;;;6.55;2.50;;;;;;;23.06;55.41;100051.03;10444335;28;20044;-71
2022/08/28 11:56:11;;;;;;;7.15;2.88;;;;;;;22.72;58.08;100044.94;10461546;28;20041;-71
2022/08/28 12:01:29;;;;;;;6.10;3.28;;;;;;;23.02;58.39;100057.69;10460646;28;20558;-71
2022/08/28 12:20:32;;;;;;;5.25;2.30;;;;;;;22.27;55.75;100045.03;10463286;28;20040;-84
2022/08/28 12:26:27;;;;;;;4.72;2.70;;;;;;;22.57;53.54;100051.53;10467662;28;20048;-84
2022/08/28 12:32:44;;;;;;;9.70;2.40;;;;;;;23.06;55.21;100034.97;10309796;28;20051;-84
2022/08/28 12:38:12;;;;;;;6.93;2.58;;;;;;;22.82;55.66;100042.34;10261224;29;20047;-84
2022/08/28 12:43:39;;;;;;;6.15;2.42;;;;;;;22.81;54.08;100036.13;10345317;22;20041;-68
2022/08/28 12:48:58;;;;;;;5.03;2.95;;;;;;;22.49;54.73;100043.25;10456669;28;20053;-69
2022/08/28 12:54:07;;;;;;;4.80;2.35;;;;;;;22.72;56.14;100039.59;10457787;28;20037;-69
2022/08/28 12:59:23;;;;;;;7.15;3.28;;;;;;;23.23;52.90;100033.53;10457486;28;20087;-69
2022/08/28 13:04:41;;;;;;;3.80;2.00;;;;;;;23.17;53.84;100034.06;10457274;28;20049;-68
2022/08/28 13:09:50;;;;;;;5.55;2.15;;;;;;;22.95;54.12;100029.66;10457335;28;20406;-68
2022/08/28 13:14:52;;;;;;;6.03;2.80;;;;;;;22.77;53.45;100033.84;10464417;28;20049;-68
2022/08/28 13:20:05;;;;;;;6.18;2.83;;;;;;;22.52;54.12;100027.81;10438709;28;20053;-68
2022/08/28 13:25:18;;;;;;;6.77;2.57;;;;;;;22.51;53.75;100025.25;10472841;28;20059;-68
2022/08/28 13:30:30;;;;;;;5.93;2.20;;;;;;;22.53;54.23;100025.97;10465781;28;20498;-68
2022/08/28 13:35:38;;;;;;;3.25;1.80;;;;;;;22.64;54.72;100024.13;10464621;28;20095;-68
2022/08/28 13:40:45;;;;;;;6.43;2.25;;;;;;;22.84;53.56;100016.25;10463773;28;20037;-69
2022/08/28 13:45:58;;;;;;;5.80;2.33;;;;;;;22.61;55.67;100016.34;10463878;28;20049;-68
2022/08/28 13:51:07;;;;;;;4.93;2.70;;;;;;;22.81;54.10;100000.44;10463635;28;20044;-68
2022/08/28 13:56:14;;;;;;;4.35;1.92;;;;;;;22.95;53.31;100007.38;10463595;28;20041;-68
2022/08/28 14:01:20;;;;;;;5.95;3.20;;;;;;;22.95;54.08;100016.25;10462946;28;20049;-68
2022/08/28 14:06:30;;;;;;;6.38;2.25;;;;;;;23.22;51.54;100020.28;10462506;28;20052;-68
2022/08/28 14:11:33;;;;;;;6.50;2.88;;;;;;;23.29;54.57;100011.59;10463230;28;20048;-68
2022/08/28 14:16:35;;;;;;;4.35;1.95;;;;;;;23.20;52.09;100006.13;10462448;28;20040;-68
2022/08/28 14:21:40;;;;;;;3.40;1.95;;;;;;;23.25;50.94;100011.97;10463612;28;20107;-69
2022/08/28 14:26:44;;;;;;;5.75;2.38;;;;;;;23.22;51.62;100004.19;10462031;28;20037;-69
2022/08/28 14:31:46;;;;;;;6.05;2.22;;;;;;;23.37;51.16;100005.56;10468900;28;20032;-69
2022/08/28 14:36:53;;;;;;;6.15;2.55;;;;;;;23.37;50.05;99995.69;10472225;28;20059;-68
2022/08/28 14:41:56;;;;;;;3.45;2.08;;;;;;;23.45;51.01;99996.84;10473326;28;20049;-69
2022/08/28 14:46:57;;;;;;;5.07;2.28;;;;;;;23.20;52.03;100000.78;10442697;28;20437;-68
2022/08/28 14:51:59;;;;;;;5.43;2.42;;;;;;;23.40;51.23;100007.97;10461221;28;20041;-69
2022/08/28 14:57:01;;;;;;;8.93;2.28;;;;;;;23.30;53.12;100001.72;10460955;28;20051;-68
2022/08/28 15:02:04;;;;;;;4.93;2.15;;;;;;;23.47;52.55;100001.13;10443872;28;20486;-68
2022/08/28 15:07:09;;;;;;;5.45;2.15;;;;;;;23.25;52.69;100011.97;10494457;28;20067;-68
2022/08/28 15:12:11;;;;;;;4.97;2.17;;;;;;;22.74;53.53;100010.81;10502337;28;20082;-68
2022/08/28 15:17:13;;;;;;;4.85;2.58;;;;;;;22.85;54.02;100005.44;10501520;28;20037;-69
2022/08/28 15:22:15;;;;;;;4.15;1.75;;;;;;;22.70;53.02;99998.66;10501095;28;20045;-68
2022/08/28 15:27:27;;;;;;;5.72;1.92;;;;;;;22.89;52.83;100004.22;10490487;28;20033;-69
2022/08/28 15:32:29;;;;;;;6.00;2.05;;;;;;;23.34;50.60;100000.47;10486835;28;20036;-68
2022/08/28 15:37:31;;;;;;;4.15;1.92;;;;;;;23.01;52.25;99994.28;10467137;28;20044;-68
2022/08/28 15:42:33;;;;;;;3.20;1.63;;;;;;;23.07;52.64;100001.00;10463205;28;20512;-68
2022/08/28 15:47:35;;;;;;;5.05;2.10;;;;;;;22.96;51.40;100009.91;10481206;28;20055;-67
2022/08/28 15:52:37;;;;;;;6.32;2.40;;;;;;;22.95;50.83;100010.06;10500604;28;20048;-69
2022/08/28 15:57:39;;;;;;;4.47;2.00;;;;;;;22.64;52.23;100005.38;10482142;28;20402;-69
2022/08/28 16:02:41;;;;;;;3.85;1.90;;;;;;;22.29;53.86;100010.94;10492055;28;20036;-69
2022/08/28 16:07:43;;;;;;;3.90;2.08;;;;;;;22.00;53.77;100010.56;10450250;28;20086;-68
2022/08/28 16:12:45;;;;;;;4.22;1.75;;;;;;;21.94;54.14;100019.06;10499290;28;20049;-68
2022/08/28 16:17:56;;;;;;;6.75;3.72;;;;;;;21.86;55.42;100013.47;10502562;28;20044;-69
2022/08/28 16:22:57;;;;;;;5.47;2.95;;;;;;;22.03;54.41;100013.00;10483320;28;20044;-69
2022/08/28 16:27:59;;;;;;;5.00;2.88;;;;;;;22.06;53.63;100017.25;10499018;28;20040;-68
2022/08/28 16:33:05;;;;;;;4.15;2.50;;;;;;;21.71;54.52;100015.53;10498750;28;20132;-69
2022/08/28 16:38:08;;;;;;;9.35;2.40;;;;;;;21.87;54.98;100015.19;10498583;28;20044;-68
2022/08/28 16:43:11;;;;;;;5.45;2.30;;;;;;;21.75;54.87;100021.50;10498817;28;20493;-68
2022/08/28 16:48:14;;;;;;;5.00;1.95;;;;;;;21.42;54.60;100017.78;10498324;28;20036;-68
2022/08/28 16:53:16;;;;;;;5.15;2.30;;;;;;;21.30;55.96;100016.06;10498552;28;20048;-68
2022/08/28 16:58:28;;;;;;;3.85;2.10;;;;;;;21.29;56.27;100012.50;10497953;28;20047;-68
2022/08/28 17:03:29;;;;;;;3.28;1.77;;;;;;;21.26;57.22;100003.88;10480239;28;20044;-68
2022/08/28 17:08:32;;;;;;;4.80;1.90;;;;;;;21.33;56.91;100007.81;10497670;28;20072;-69
2022/08/28 17:13:34;;;;;;;5.40;2.15;;;;;;;21.38;56.89;100011.84;10497654;28;20044;-68
2022/08/28 17:18:37;;;;;;;3.90;2.42;;;;;;;21.35;57.27;100011.22;10497813;28;20048;-68
2022/08/28 17:23:48;;;;;;;8.02;2.20;;;;;;;21.35;57.15;100006.72;10497147;28;20051;-68
2022/08/28 17:28:50;;;;;;;4.10;2.08;;;;;;;21.01;59.17;100005.75;10497834;28;20110;-68
2022/08/28 17:33:52;;;;;;;4.70;2.08;;;;;;;21.05;58.94;100012.56;10497209;28;20490;-68
2022/08/28 17:38:53;;;;;;;3.80;1.95;;;;;;;21.07;57.98;100018.66;10497631;28;20048;-68
2022/08/28 17:43:55;;;;;;;5.78;2.05;;;;;;;21.08;57.06;100015.00;10496245;28;20067;-68
2022/08/28 17:48:57;;;;;;;5.60;3.13;;;;;;;20.80;58.53;100026.91;10477334;28;20040;-68
2022/08/28 17:53:59;;;;;;;3.42;2.17;;;;;;;20.52;60.63;100025.41;10494723;28;20494;-67
2022/08/28 17:59:01;;;;;;;4.35;2.55;;;;;;;20.33;61.73;100035.72;10494778;28;20557;-67
2022/08/28 18:04:04;;;;;;;3.63;2.13;;;;;;;20.17;61.72;100042.13;10440882;22;1192148;-69
2022/08/28 18:09:08;;;;;;;4.22;2.20;;;;;;;19.94;63.13;100044.75;10442832;28;20040;-69
2022/08/28 18:14:09;;;;;;;4.75;2.47;;;;;;;19.96;62.40;100057.00;10465989;28;20056;-69
2022/08/28 18:19:12;;;;;;;8.88;2.70;;;;;;;19.68;64.58;100049.22;10466038;28;20041;-69
2022/08/28 18:24:15;;;;;;;6.45;2.03;;;;;;;19.70;63.76;100061.50;10449199;28;20041;-70
2022/08/28 18:29:17;;;;;;;3.75;2.10;;;;;;;19.79;62.83;100071.53;10464323;28;20041;-70
2022/08/28 18:34:19;;;;;;;5.93;2.60;;;;;;;19.78;62.61;100068.97;10464112;28;20075;-70
2022/08/28 18:39:20;;;;;;;3.97;2.28;;;;;;;19.87;61.58;100085.16;10463859;28;20045;-69
2022/08/28 18:44:31;;;;;;;3.95;2.33;;;;;;;19.73;62.01;100087.09;10466217;28;20044;-69
2022/08/28 18:49:32;;;;;;;5.18;2.42;;;;;;;19.71;61.64;100094.34;10463959;28;20037;-69
2022/08/28 18:54:35;;;;;;;5.00;2.78;;;;;;;19.53;61.98;100101.78;10446043;28;20045;-68
2022/08/28 18:59:37;;;;;;;5.85;2.47;;;;;;;19.04;65.63;100105.91;10446674;28;20044;-69
2022/08/28 19:04:41;;;;;;;4.25;2.60;;;;;;;18.81;66.45;100103.84;10463196;28;20045;-69
2022/08/28 19:09:43;;;;;;;4.53;2.85;;;;;;;18.73;67.59;100103.53;10463676;28;20043;-69
2022/08/28 19:14:44;;;;;;;5.90;3.03;;;;;;;18.69;69.03;100100.19;10444459;28;20049;-68
2022/08/28 19:19:46;;;;;;;5.25;2.65;;;;;;;18.85;65.97;100106.22;10462541;28;20037;-69
2022/08/28 19:24:49;;;;;;;6.53;2.63;;;;;;;18.97;64.44;100117.91;10462192;28;20422;-70
2022/08/28 19:29:50;;;;;;;5.35;2.78;;;;;;;18.86;64.74;100115.94;10463517;28;20348;-70
2022/08/28 19:34:52;;;;;;;5.72;2.53;;;;;;;18.97;64.39;100119.72;10462560;28;20040;-70
2022/08/28 19:39:54;;;;;;;6.13;2.70;;;;;;;18.87;64.56;100125.63;10444754;28;20045;-69
2022/08/28 19:44:57;;;;;;;2.72;1.90;;;;;;;18.73;64.91;100122.16;10462415;28;20048;-68
2022/08/28 19:50:00;;;;;;;5.30;2.67;;;;;;;18.60;65.36;100117.59;10443454;28;20048;-69
2022/08/28 19:55:04;;;;;;;5.55;2.65;;;;;;;18.71;64.79;100122.25;10462699;28;20072;-69
2022/08/28 20:00:08;;;;;;;4.20;2.35;;;;;;;18.61;64.98;100127.28;10462866;28;20123;-69
2022/08/28 20:05:10;;;;;;;7.28;3.75;;;;;;;18.51;65.20;100120.84;10460611;28;20417;-70
2022/08/28 20:10:12;;;;;;;3.83;2.20;;;;;;;18.43;65.41;100125.78;10443930;28;20379;-69
2022/08/28 20:15:16;;;;;;;8.20;3.20;;;;;;;18.29;66.24;100128.44;10460566;28;20055;-70
2022/08/28 20:20:19;;;;;;;4.32;2.70;;;;;;;18.15;67.31;100135.47;10442902;28;20418;-70
2022/08/28 20:25:21;;;;;;;6.03;3.08;;;;;;;18.25;66.39;100137.56;10459876;28;20047;-68
2022/08/28 20:30:23;;;;;;;4.95;3.15;;;;;;;18.12;68.00;100142.78;10459637;28;20390;-69
2022/08/28 20:35:24;;;;;;;4.90;2.70;;;;;;;18.13;66.96;100134.72;10458659;28;20044;-68
2022/08/28 20:40:28;;;;;;;5.38;2.83;;;;;;;18.20;66.92;100139.66;10459338;28;20045;-69
2022/08/28 20:45:30;;;;;;;6.65;2.80;;;;;;;18.25;66.29;100149.06;10459250;28;20074;-70
2022/08/28 20:50:32;;;;;;;4.85;2.55;;;;;;;17.92;69.08;100149.31;10459578;28;20048;-70
2022/08/28 20:55:33;;;;;;;5.70;2.63;;;;;;;18.07;67.00;100147.53;10440501;28;20045;-69
2022/08/28 21:00:35;;;;;;;7.25;3.28;;;;;;;17.70;69.36;100156.81;10442486;28;20413;-70
2022/08/28 21:05:38;;;;;;;4.93;2.72;;;;;;;17.82;67.74;100156.97;10441778;28;20041;-70
2022/08/28 21:10:42;;;;;;;8.05;3.03;;;;;;;17.68;68.72;100156.91;10440656;28;20041;-70
2022/08/28 21:15:44;;;;;;;6.00;2.80;;;;;;;17.74;67.75;100166.38;10440785;28;20045;-69
2022/08/28 21:20:45;;;;;;;4.63;2.53;;;;;;;17.59;68.35;100166.28;10458553;28;20049;-69
2022/08/28 21:25:47;;;;;;;5.20;2.40;;;;;;;17.51;69.16;100165.88;10440708;28;20518;-69
2022/08/28 21:30:49;;;;;;;4.32;2.55;;;;;;;17.55;68.17;100164.75;10442239;28;20059;-70
2022/08/28 21:35:51;;;;;;;4.43;2.85;;;;;;;17.65;67.65;100170.38;10458735;28;20044;-69
2022/08/28 21:40:52;;;;;;;5.55;2.42;;;;;;;17.90;66.04;100172.50;10441225;28;20100;-69
2022/08/28 21:45:59;;;;;;;4.22;2.13;;;;;;;17.92;65.39;100180.38;10462420;28;20520;-71
2022/08/28 21:51:05;;;;;;;4.55;2.40;;;;;;;17.83;65.98;100181.78;10448163;28;20041;-69
2022/08/28 21:56:08;;;;;;;4.40;2.50;;;;;;;17.50;67.80;100180.13;10466459;28;20045;-70
2022/08/28 22:01:13;;;;;;;5.65;2.85;;;;;;;17.32;68.90;100182.03;10466608;28;20490;-70
2022/08/28 22:06:18;;;;;;;5.10;2.80;;;;;;;17.05;71.91;100186.28;10466049;28;20052;-70
2022/08/28 22:11:20;;;;;;;6.40;2.40;;;;;;;16.94;72.05;100186.00;10448844;28;20064;-69
2022/08/28 22:16:26;;;;;;;5.72;2.20;;;;;;;16.71;73.66;100192.53;10448382;28;20414;-69
2022/08/28 22:26:48;;;;;;;5.15;2.20;;;;;;;16.54;75.89;100202.28;10449283;28;20045;-69
2022/08/28 22:31:57;;;;;;;4.72;2.78;;;;;;;16.43;76.42;100204.66;10447123;28;20081;-70
2022/08/28 22:36:59;;;;;;;5.20;2.45;;;;;;;16.40;77.61;100196.84;10446525;28;20041;-69
2022/08/28 22:42:01;;;;;;;6.00;2.80;;;;;;;16.24;78.55;100211.84;10446940;28;20063;-69
2022/08/28 22:47:03;;;;;;;4.15;2.75;;;;;;;16.11;80.64;100209.88;10446139;28;20057;-69
2022/08/28 22:52:05;;;;;;;5.53;2.55;;;;;;;16.04;81.09;100219.06;10463583;28;20051;-70
2022/08/28 22:57:06;;;;;;;3.83;2.00;;;;;;;15.98;81.41;100211.44;10463134;28;20552;-70
2022/08/28 23:02:08;;;;;;;7.50;2.10;;;;;;;15.91;83.02;100211.81;10463491;28;20128;-69
2022/08/28 23:07:10;;;;;;;5.30;2.65;;;;;;;15.85;83.92;100211.19;10462950;28;20083;-69
2022/08/28 23:12:13;;;;;;;5.55;2.70;;;;;;;15.86;83.70;100218.19;10463337;28;20449;-69
2022/08/28 23:17:17;;;;;;;5.25;2.55;;;;;;;15.78;84.39;100220.38;10462619;28;20049;-69
2022/08/28 23:22:19;;;;;;;6.65;2.72;;;;;;;15.75;84.05;100219.66;10444057;28;20059;-69
2022/08/28 23:27:20;;;;;;;4.78;2.53;;;;;;;15.66;84.10;100223.63;10443625;28;20088;-69
2022/08/28 23:32:38;;;;;;;5.90;2.13;;;;;;;15.62;84.29;100228.19;10443684;28;20475;-70
2022/08/28 23:37:40;;;;;;;4.97;2.30;;;;;;;15.67;83.12;100225.38;10461037;28;20060;-69
2022/08/28 23:42:48;;;;;;;2.95;2.28;;;;;;;15.65;81.69;100229.88;10462334;28;20073;-70
2022/08/28 23:47:50;;;;;;;7.75;2.28;;;;;;;15.57;80.75;100237.31;10460937;28;20505;-69
2022/08/28 23:52:52;;;;;;;3.55;2.30;;;;;;;15.52;80.80;100242.84;10460477;28;20040;-70